sensor_id;sensor_type;location;lat;lon;timestamp;pressure;altitude;pressure_sealevel;temperature;humidity
57114;BME280;42994;51.606;9.988;2023-05-10T00:01:34;98230.84;;;12.41;100.00
57114;BME280;42994;51.606;9.988;2023-05-10T00:04:01;98236.66;;;12.38;100.00
57114;BME280;42994;51.606;9.988;2023-05-10T00:06:27;98229.03;;;12.35;100.00
57114;BME280;42994;51.606;9.988;2023-05-10T00:08:54;98227.38;;;12.34;100.00
57114;BME280;42994;51.606;9.988;2023-05-10T00:11:22;98226.31;;;12.35;100.00
57114;BME280;42994;51.606;9.988;2023-05-10T00:13:49;98227.22;;;12.29;100.00
57114;BME280;42994;51.606;9.988;2023-05-10T00:16:15;98224.09;;;12.32;100.00
57114;BME280;42994;51.606;9.988;2023-05-10T00:18:42;98216.03;;;12.32;100.00
57114;BME280;42994;51.606;9.988;2023-05-10T00:21:08;98221.84;;;12.29;100.00
57114;BME280;42994;51.606;9.988;2023-05-10T00:23:35;98224.16;;;12.25;100.00
57114;BME280;42994;51.606;9.988;2023-05-10T00:26:01;98224.16;;;12.25;100.00
57114;BME280;42994;51.606;9.988;2023-05-10T00:28:29;98220.78;;;12.30;100.00
57114;BME280;42994;51.606;9.988;2023-05-10T00:30:56;98221.09;;;12.22;100.00
57114;BME280;42994;51.606;9.988;2023-05-10T00:33:22;98217.50;;;12.28;100.00
57114;BME280;42994;51.606;9.988;2023-05-10T00:35:49;98212.03;;;11.98;100.00
57114;BME280;42994;51.606;9.988;2023-05-10T00:38:16;98220.53;;;11.88;100.00
57114;BME280;42994;51.606;9.988;2023-05-10T00:40:42;98225.19;;;11.74;100.00
57114;BME280;42994;51.606;9.988;2023-05-10T00:43:16;98217.50;;;11.52;100.00
57114;BME280;42994;51.606;9.988;2023-05-10T00:45:44;98223.75;;;11.71;100.00
57114;BME280;42994;51.606;9.988;2023-05-10T00:48:11;98224.69;;;11.90;100.00
57114;BME280;42994;51.606;9.988;2023-05-10T00:50:38;98212.75;;;11.80;100.00
57114;BME280;42994;51.606;9.988;2023-05-10T00:53:05;98216.25;;;11.55;100.00
57114;BME280;42994;51.606;9.988;2023-05-10T00:55:32;98212.81;;;11.73;100.00
57114;BME280;42994;51.606;9.988;2023-05-10T00:57:59;98213.19;;;11.77;100.00
57114;BME280;42994;51.606;9.988;2023-05-10T01:00:26;98212.38;;;11.76;100.00
57114;BME280;42994;51.606;9.988;2023-05-10T01:02:56;98208.97;;;11.94;100.00
57114;BME280;42994;51.606;9.988;2023-05-10T01:05:23;98209.78;;;11.88;100.00
57114;BME280;42994;51.606;9.988;2023-05-10T01:07:50;98214.25;;;12.01;100.00
57114;BME280;42994;51.606;9.988;2023-05-10T01:10:16;98210.00;;;11.93;100.00
57114;BME280;42994;51.606;9.988;2023-05-10T01:12:45;98202.47;;;12.02;100.00
57114;BME280;42994;51.606;9.988;2023-05-10T01:15:14;98212.63;;;12.00;100.00
57114;BME280;42994;51.606;9.988;2023-05-10T01:17:44;98204.03;;;11.91;100.00
57114;BME280;42994;51.606;9.988;2023-05-10T01:20:14;98204.84;;;11.91;100.00
57114;BME280;42994;51.606;9.988;2023-05-10T01:22:52;98205.16;;;12.02;100.00
57114;BME280;42994;51.606;9.988;2023-05-10T01:25:32;98202.16;;;11.91;100.00
57114;BME280;42994;51.606;9.988;2023-05-10T01:28:16;98199.03;;;11.95;100.00
57114;BME280;42994;51.606;9.988;2023-05-10T01:31:06;98201.28;;;11.98;100.00
57114;BME280;42994;51.606;9.988;2023-05-10T01:33:39;98199.41;;;11.98;100.00
57114;BME280;42994;51.606;9.988;2023-05-10T01:36:14;98203.38;;;11.96;100.00
57114;BME280;42994;51.606;9.988;2023-05-10T01:38:50;98201.88;;;12.00;100.00
57114;BME280;42994;51.606;9.988;2023-05-10T01:41:21;98200.69;;;11.89;100.00
57114;BME280;42994;51.606;9.988;2023-05-10T01:43:55;98198.66;;;11.84;100.00
57114;BME280;42994;51.606;9.988;2023-05-10T01:46:27;98194.94;;;11.85;100.00
57114;BME280;42994;51.606;9.988;2023-05-10T01:48:58;98199.88;;;11.88;100.00
57114;BME280;42994;51.606;9.988;2023-05-10T01:51:29;98194.94;;;11.92;100.00
57114;BME280;42994;51.606;9.988;2023-05-10T01:54:00;98190.38;;;11.86;100.00
57114;BME280;42994;51.606;9.988;2023-05-10T01:56:29;98192.88;;;11.87;100.00
57114;BME280;42994;51.606;9.988;2023-05-10T01:58:58;98193.06;;;11.92;100.00
57114;BME280;42994;51.606;9.988;2023-05-10T02:01:27;98195.38;;;11.82;100.00
57114;BME280;42994;51.606;9.988;2023-05-10T02:03:54;98188.53;;;11.86;100.00
57114;BME280;42994;51.606;9.988;2023-05-10T02:06:25;98196.56;;;11.86;100.00
57114;BME280;42994;51.606;9.988;2023-05-10T02:08:53;98196.38;;;11.88;100.00
57114;BME280;42994;51.606;9.988;2023-05-10T02:11:21;98190.94;;;11.69;100.00
57114;BME280;42994;51.606;9.988;2023-05-10T02:13:51;98194.41;;;11.77;100.00
57114;BME280;42994;51.606;9.988;2023-05-10T02:16:26;98194.78;;;11.80;100.00
57114;BME280;42994;51.606;9.988;2023-05-10T02:18:57;98199.44;;;11.66;100.00
57114;BME280;42994;51.606;9.988;2023-05-10T02:21:27;98191.13;;;11.74;100.00
57114;BME280;42994;51.606;9.988;2023-05-10T02:23:55;98187.22;;;11.70;100.00
57114;BME280;42994;51.606;9.988;2023-05-10T02:26:23;98192.22;;;11.67;100.00
57114;BME280;42994;51.606;9.988;2023-05-10T02:28:51;98194.91;;;11.67;100.00
57114;BME280;42994;51.606;9.988;2023-05-10T02:31:18;98196.28;;;11.76;100.00
57114;BME280;42994;51.606;9.988;2023-05-10T02:33:46;98190.50;;;11.72;100.00
57114;BME280;42994;51.606;9.988;2023-05-10T02:36:15;98186.56;;;11.75;100.00
57114;BME280;42994;51.606;9.988;2023-05-10T02:38:44;98187.41;;;11.76;100.00
57114;BME280;42994;51.606;9.988;2023-05-10T02:41:12;98187.84;;;11.72;100.00
57114;BME280;42994;51.606;9.988;2023-05-10T02:43:41;98188.22;;;11.76;100.00
57114;BME280;42994;51.606;9.988;2023-05-10T02:46:09;98193.47;;;11.64;100.00
57114;BME280;42994;51.606;9.988;2023-05-10T02:48:36;98188.03;;;11.71;100.00
57114;BME280;42994;51.606;9.988;2023-05-10T02:51:07;98185.41;;;11.39;100.00
57114;BME280;42994;51.606;9.988;2023-05-10T02:53:35;98191.94;;;11.50;100.00
57114;BME280;42994;51.606;9.988;2023-05-10T02:56:10;98187.50;;;11.62;100.00
57114;BME280;42994;51.606;9.988;2023-05-10T02:58:38;98191.31;;;11.48;100.00
57114;BME280;42994;51.606;9.988;2023-05-10T03:01:05;98185.41;;;11.39;100.00
57114;BME280;42994;51.606;9.988;2023-05-10T03:03:33;98180.88;;;11.33;100.00
57114;BME280;42994;51.606;9.988;2023-05-10T03:05:59;98192.88;;;11.30;100.00
57114;BME280;42994;51.606;9.988;2023-05-10T03:08:26;98184.84;;;11.30;100.00
57114;BME280;42994;51.606;9.988;2023-05-10T03:11:01;98189.09;;;11.45;100.00
57114;BME280;42994;51.606;9.988;2023-05-10T03:13:41;98190.72;;;11.46;100.00
57114;BME280;42994;51.606;9.988;2023-05-10T03:16:14;98189.63;;;11.22;100.00
57114;BME280;42994;51.606;9.988;2023-05-10T03:18:44;98181.53;;;10.96;100.00
57114;BME280;42994;51.606;9.988;2023-05-10T03:21:17;98181.88;;;11.07;100.00
57114;BME280;42994;51.606;9.988;2023-05-10T03:23:46;98189.75;;;11.02;100.00
57114;BME280;42994;51.606;9.988;2023-05-10T03:26:18;98177.25;;;11.21;100.00
57114;BME280;42994;51.606;9.988;2023-05-10T03:28:49;98185.44;;;11.32;100.00
57114;BME280;42994;51.606;9.988;2023-05-10T03:31:17;98178.59;;;11.37;100.00
57114;BME280;42994;51.606;9.988;2023-05-10T03:33:47;98171.59;;;11.35;100.00
57114;BME280;42994;51.606;9.988;2023-05-10T03:36:16;98174.56;;;11.52;100.00
57114;BME280;42994;51.606;9.988;2023-05-10T03:38:43;98180.72;;;11.60;100.00
57114;BME280;42994;51.606;9.988;2023-05-10T03:41:10;98174.06;;;11.62;100.00
57114;BME280;42994;51.606;9.988;2023-05-10T03:43:37;98176.75;;;11.62;100.00
57114;BME280;42994;51.606;9.988;2023-05-10T03:46:05;98183.09;;;11.68;100.00
57114;BME280;42994;51.606;9.988;2023-05-10T03:48:33;98182.06;;;11.69;100.00
57114;BME280;42994;51.606;9.988;2023-05-10T03:51:00;98181.09;;;11.63;100.00
57114;BME280;42994;51.606;9.988;2023-05-10T03:53:26;98191.44;;;11.60;100.00
57114;BME280;42994;51.606;9.988;2023-05-10T03:55:53;98194.63;;;11.50;100.00
57114;BME280;42994;51.606;9.988;2023-05-10T03:58:19;98184.06;;;11.23;100.00
57114;BME280;42994;51.606;9.988;2023-05-10T04:00:47;98195.28;;;11.39;100.00
57114;BME280;42994;51.606;9.988;2023-05-10T04:03:15;98189.94;;;11.39;100.00
57114;BME280;42994;51.606;9.988;2023-05-10T04:05:42;98190.72;;;11.46;100.00
57114;BME280;42994;51.606;9.988;2023-05-10T04:08:08;98184.94;;;11.17;100.00
57114;BME280;42994;51.606;9.988;2023-05-10T04:10:35;98179.84;;;11.02;100.00
57114;BME280;42994;51.606;9.988;2023-05-10T04:13:02;98182.63;;;11.21;100.00
57114;BME280;42994;51.606;9.988;2023-05-10T04:15:28;98192.63;;;11.39;100.00
57114;BME280;42994;51.606;9.988;2023-05-10T04:17:55;98189.13;;;11.38;100.00
57114;BME280;42994;51.606;9.988;2023-05-10T04:20:23;98194.88;;;11.42;100.00
57114;BME280;42994;51.606;9.988;2023-05-10T04:22:49;98186.03;;;11.34;100.00
57114;BME280;42994;51.606;9.988;2023-05-10T04:25:16;98182.75;;;11.32;100.00
57114;BME280;42994;51.606;9.988;2023-05-10T04:27:42;98180.31;;;11.24;100.00
57114;BME280;42994;51.606;9.988;2023-05-10T04:30:10;98186.22;;;11.40;100.00
57114;BME280;42994;51.606;9.988;2023-05-10T04:32:36;98182.16;;;11.30;100.00
57114;BME280;42994;51.606;9.988;2023-05-10T04:35:03;98180.47;;;11.36;100.00
57114;BME280;42994;51.606;9.988;2023-05-10T04:37:31;98189.91;;;11.45;100.00
57114;BME280;42994;51.606;9.988;2023-05-10T04:39:58;98199.34;;;11.48;100.00
57114;BME280;42994;51.606;9.988;2023-05-10T04:42:26;98202.69;;;11.50;100.00
57114;BME280;42994;51.606;9.988;2023-05-10T04:44:52;98198.94;;;11.51;100.00
57114;BME280;42994;51.606;9.988;2023-05-10T04:47:19;98202.28;;;11.46;100.00
57114;BME280;42994;51.606;9.988;2023-05-10T04:49:45;98203.25;;;11.20;100.00
57114;BME280;42994;51.606;9.988;2023-05-10T04:52:12;98200.16;;;10.85;100.00
57114;BME280;42994;51.606;9.988;2023-05-10T04:54:40;98197.28;;;10.80;100.00
57114;BME280;42994;51.606;9.988;2023-05-10T04:57:07;98189.25;;;10.73;100.00
57114;BME280;42994;51.606;9.988;2023-05-10T04:59:35;98181.47;;;10.65;100.00
57114;BME280;42994;51.606;9.988;2023-05-10T05:02:02;98169.72;;;10.66;100.00
57114;BME280;42994;51.606;9.988;2023-05-10T05:04:29;98179.59;;;10.72;100.00
57114;BME280;42994;51.606;9.988;2023-05-10T05:06:56;98183.00;;;10.92;100.00
57114;BME280;42994;51.606;9.988;2023-05-10T05:09:22;98166.81;;;11.06;100.00
57114;BME280;42994;51.606;9.988;2023-05-10T05:11:50;98180.09;;;11.26;100.00
57114;BME280;42994;51.606;9.988;2023-05-10T05:14:17;98195.22;;;11.52;100.00
57114;BME280;42994;51.606;9.988;2023-05-10T05:16:46;98196.47;;;11.49;100.00
57114;BME280;42994;51.606;9.988;2023-05-10T05:19:12;98197.63;;;11.60;100.00
57114;BME280;42994;51.606;9.988;2023-05-10T05:21:39;98213.56;;;11.55;100.00
57114;BME280;42994;51.606;9.988;2023-05-10T05:24:06;98220.84;;;11.48;100.00
57114;BME280;42994;51.606;9.988;2023-05-10T05:26:33;98215.91;;;11.45;100.00
57114;BME280;42994;51.606;9.988;2023-05-10T05:29:01;98215.91;;;11.45;100.00
57114;BME280;42994;51.606;9.988;2023-05-10T05:31:28;98218.84;;;11.37;100.00
57114;BME280;42994;51.606;9.988;2023-05-10T05:33:55;98228.06;;;11.47;100.00
57114;BME280;42994;51.606;9.988;2023-05-10T05:36:21;98237.88;;;11.60;100.00
57114;BME280;42994;51.606;9.988;2023-05-10T05:38:48;98227.06;;;11.42;100.00
57114;BME280;42994;51.606;9.988;2023-05-10T05:41:15;98221.28;;;11.45;100.00
57114;BME280;42994;51.606;9.988;2023-05-10T05:43:41;98209.63;;;11.58;100.00
57114;BME280;42994;51.606;9.988;2023-05-10T05:46:09;98199.00;;;11.69;100.00
57114;BME280;42994;51.606;9.988;2023-05-10T05:48:36;98192.78;;;11.76;100.00
57114;BME280;42994;51.606;9.988;2023-05-10T05:51:02;98178.66;;;11.80;100.00
57114;BME280;42994;51.606;9.988;2023-05-10T05:53:29;98174.75;;;11.83;100.00
57114;BME280;42994;51.606;9.988;2023-05-10T05:55:57;98176.53;;;11.89;100.00
57114;BME280;42994;51.606;9.988;2023-05-10T05:58:24;98175.88;;;11.93;100.00
57114;BME280;42994;51.606;9.988;2023-05-10T06:00:51;98172.16;;;11.95;100.00
57114;BME280;42994;51.606;9.988;2023-05-10T06:03:22;98171.97;;;11.96;100.00
57114;BME280;42994;51.606;9.988;2023-05-10T06:05:49;98179.94;;;12.03;100.00
57114;BME280;42994;51.606;9.988;2023-05-10T06:08:16;98184.88;;;12.06;100.00
57114;BME280;42994;51.606;9.988;2023-05-10T06:10:42;98184.22;;;12.10;100.00
57114;BME280;42994;51.606;9.988;2023-05-10T06:13:09;98180.47;;;12.11;100.00
57114;BME280;42994;51.606;9.988;2023-05-10T06:15:36;98181.69;;;12.16;100.00
57114;BME280;42994;51.606;9.988;2023-05-10T06:18:03;98180.25;;;12.13;100.00
57114;BME280;42994;51.606;9.988;2023-05-10T06:20:31;98195.34;;;12.14;100.00
57114;BME280;42994;51.606;9.988;2023-05-10T06:22:58;98191.97;;;12.19;100.00
57114;BME280;42994;51.606;9.988;2023-05-10T06:25:24;98193.16;;;12.23;100.00
57114;BME280;42994;51.606;9.988;2023-05-10T06:27:51;98196.91;;;12.22;100.00
57114;BME280;42994;51.606;9.988;2023-05-10T06:30:22;98204.28;;;12.26;100.00
57114;BME280;42994;51.606;9.988;2023-05-10T06:32:52;98195.84;;;12.23;100.00
57114;BME280;42994;51.606;9.988;2023-05-10T06:35:19;98199.88;;;12.14;100.00
57114;BME280;42994;51.606;9.988;2023-05-10T06:37:47;98198.16;;;12.19;100.00
57114;BME280;42994;51.606;9.988;2023-05-10T06:40:14;98205.56;;;12.24;100.00
57114;BME280;42994;51.606;9.988;2023-05-10T06:42:40;98201.22;;;12.23;100.00
57114;BME280;42994;51.606;9.988;2023-05-10T06:45:08;98211.09;;;12.29;100.00
57114;BME280;42994;51.606;9.988;2023-05-10T06:47:35;98203.41;;;12.33;100.00
57114;BME280;42994;51.606;9.988;2023-05-10T06:50:02;98200.75;;;12.33;100.00
57114;BME280;42994;51.606;9.988;2023-05-10T06:52:28;98210.22;;;12.35;100.00
57114;BME280;42994;51.606;9.988;2023-05-10T06:54:56;98205.72;;;12.29;100.00
57114;BME280;42994;51.606;9.988;2023-05-10T06:57:23;98212.06;;;12.35;100.00
57114;BME280;42994;51.606;9.988;2023-05-10T06:59:50;98208.41;;;12.29;100.00
57114;BME280;42994;51.606;9.988;2023-05-10T07:02:16;98215.28;;;12.25;100.00
57114;BME280;42994;51.606;9.988;2023-05-10T07:04:43;98214.22;;;12.26;100.00
57114;BME280;42994;51.606;9.988;2023-05-10T07:07:10;98224.81;;;12.21;100.00
57114;BME280;42994;51.606;9.988;2023-05-10T07:09:36;98216.09;;;12.25;100.00
57114;BME280;42994;51.606;9.988;2023-05-10T07:12:04;98213.78;;;12.29;100.00
57114;BME280;42994;51.606;9.988;2023-05-10T07:14:31;98223.44;;;12.37;100.00
57114;BME280;42994;51.606;9.988;2023-05-10T07:16:57;98221.41;;;12.32;100.00
57114;BME280;42994;51.606;9.988;2023-05-10T07:19:24;98220.41;;;12.26;100.00
57114;BME280;42994;51.606;9.988;2023-05-10T07:21:51;98221.25;;;12.27;100.00
57114;BME280;42994;51.606;9.988;2023-05-10T07:24:17;98218.63;;;12.20;100.00
57114;BME280;42994;51.606;9.988;2023-05-10T07:26:44;98227.28;;;12.22;100.00
57114;BME280;42994;51.606;9.988;2023-05-10T07:29:12;98227.72;;;12.19;100.00
57114;BME280;42994;51.606;9.988;2023-05-10T07:31:38;98228.63;;;12.13;100.00
57114;BME280;42994;51.606;9.988;2023-05-10T07:34:07;98230.06;;;12.16;100.00
57114;BME280;42994;51.606;9.988;2023-05-10T07:36:33;98235.94;;;12.24;100.00
57114;BME280;42994;51.606;9.988;2023-05-10T07:39:00;98237.81;;;12.24;100.00
57114;BME280;42994;51.606;9.988;2023-05-10T07:41:28;98242.28;;;12.30;100.00
57114;BME280;42994;51.606;9.988;2023-05-10T07:43:55;98241.41;;;12.18;100.00
57114;BME280;42994;51.606;9.988;2023-05-10T07:46:23;98241.09;;;12.26;100.00
57114;BME280;42994;51.606;9.988;2023-05-10T07:48:49;98239.47;;;12.25;100.00
57114;BME280;42994;51.606;9.988;2023-05-10T07:51:16;98235.88;;;12.31;100.00
57114;BME280;42994;51.606;9.988;2023-05-10T07:53:43;98231.47;;;12.37;100.00
57114;BME280;42994;51.606;9.988;2023-05-10T07:56:21;98242.03;;;12.38;100.00
57114;BME280;42994;51.606;9.988;2023-05-10T07:58:48;98249.75;;;12.28;100.00
57114;BME280;42994;51.606;9.988;2023-05-10T08:01:15;98248.38;;;12.44;100.00
57114;BME280;42994;51.606;9.988;2023-05-10T08:03:43;98254.50;;;12.51;100.00
57114;BME280;42994;51.606;9.988;2023-05-10T08:06:10;98261.97;;;12.49;100.00
57114;BME280;42994;51.606;9.988;2023-05-10T08:08:37;98266.81;;;12.40;100.00
57114;BME280;42994;51.606;9.988;2023-05-10T08:11:04;98268.59;;;12.46;100.00
57114;BME280;42994;51.606;9.988;2023-05-10T08:13:31;98273.38;;;12.44;100.00
57114;BME280;42994;51.606;9.988;2023-05-10T08:15:57;98281.72;;;12.36;100.00
57114;BME280;42994;51.606;9.988;2023-05-10T08:18:24;98283.91;;;12.46;100.00
57114;BME280;42994;51.606;9.988;2023-05-10T08:20:52;98285.41;;;12.42;100.00
57114;BME280;42994;51.606;9.988;2023-05-10T08:23:18;98289.34;;;12.39;100.00
57114;BME280;42994;51.606;9.988;2023-05-10T08:25:45;98291.38;;;12.44;100.00
57114;BME280;42994;51.606;9.988;2023-05-10T08:28:12;98288.16;;;12.54;100.00
57114;BME280;42994;51.606;9.988;2023-05-10T08:30:38;98292.78;;;12.46;100.00
57114;BME280;42994;51.606;9.988;2023-05-10T08:33:05;98297.13;;;12.47;100.00
57114;BME280;42994;51.606;9.988;2023-05-10T08:35:32;98300.78;;;12.53;100.00
57114;BME280;42994;51.606;9.988;2023-05-10T08:38:01;98311.78;;;12.70;100.00
57114;BME280;42994;51.606;9.988;2023-05-10T08:40:28;98311.50;;;12.78;100.00
57114;BME280;42994;51.606;9.988;2023-05-10T08:42:58;98311.34;;;12.92;100.00
57114;BME280;42994;51.606;9.988;2023-05-10T08:45:26;98331.38;;;12.96;100.00
57114;BME280;42994;51.606;9.988;2023-05-10T08:47:56;98331.53;;;13.01;100.00
57114;BME280;42994;51.606;9.988;2023-05-10T08:50:24;98341.91;;;12.97;100.00
57114;BME280;42994;51.606;9.988;2023-05-10T08:52:52;98338.84;;;13.12;100.00
57114;BME280;42994;51.606;9.988;2023-05-10T08:55:23;98348.28;;;13.03;100.00
57114;BME280;42994;51.606;9.988;2023-05-10T08:57:50;98355.75;;;13.01;100.00
57114;BME280;42994;51.606;9.988;2023-05-10T09:00:17;98363.53;;;12.91;100.00
57114;BME280;42994;51.606;9.988;2023-05-10T09:02:44;98361.66;;;13.10;100.00
57114;BME280;42994;51.606;9.988;2023-05-10T09:05:12;98367.03;;;13.10;100.00
57114;BME280;42994;51.606;9.988;2023-05-10T09:07:41;98374.59;;;13.19;100.00
57114;BME280;42994;51.606;9.988;2023-05-10T09:10:08;98378.41;;;13.30;100.00
57114;BME280;42994;51.606;9.988;2023-05-10T09:12:38;98391.03;;;13.30;100.00
57114;BME280;42994;51.606;9.988;2023-05-10T09:15:06;98389.44;;;13.47;100.00
57114;BME280;42994;51.606;9.988;2023-05-10T09:17:33;98411.09;;;13.34;100.00
57114;BME280;42994;51.606;9.988;2023-05-10T09:20:01;98404.91;;;13.33;100.00
57114;BME280;42994;51.606;9.988;2023-05-10T09:22:28;98419.78;;;13.36;100.00
57114;BME280;42994;51.606;9.988;2023-05-10T09:25:05;98421.00;;;13.40;100.00
57114;BME280;42994;51.606;9.988;2023-05-10T09:27:32;98424.78;;;13.32;100.00
57114;BME280;42994;51.606;9.988;2023-05-10T09:30:00;98426.69;;;13.25;100.00
57114;BME280;42994;51.606;9.988;2023-05-10T09:32:36;98421.06;;;13.33;100.00
57114;BME280;42994;51.606;9.988;2023-05-10T09:35:07;98422.75;;;13.27;100.00
57114;BME280;42994;51.606;9.988;2023-05-10T09:37:34;98429.16;;;13.26;100.00
57114;BME280;42994;51.606;9.988;2023-05-10T09:40:04;98429.72;;;13.35;100.00
57114;BME280;42994;51.606;9.988;2023-05-10T09:42:33;98431.75;;;13.40;100.00
57114;BME280;42994;51.606;9.988;2023-05-10T09:45:03;98436.41;;;13.33;100.00
57114;BME280;42994;51.606;9.988;2023-05-10T09:47:32;98436.25;;;13.46;100.00
57114;BME280;42994;51.606;9.988;2023-05-10T09:50:00;98444.47;;;13.51;100.00
57114;BME280;42994;51.606;9.988;2023-05-10T09:52:30;98454.50;;;13.44;100.00
57114;BME280;42994;51.606;9.988;2023-05-10T09:54:56;98454.50;;;13.44;100.00
57114;BME280;42994;51.606;9.988;2023-05-10T09:57:24;98458.31;;;13.55;100.00
57114;BME280;42994;51.606;9.988;2023-05-10T09:59:51;98456.06;;;13.52;100.00
57114;BME280;42994;51.606;9.988;2023-05-10T10:02:20;98461.44;;;13.70;100.00
57114;BME280;42994;51.606;9.988;2023-05-10T10:04:49;98460.59;;;13.88;100.00
57114;BME280;42994;51.606;9.988;2023-05-10T10:07:22;98469.59;;;13.82;100.00
57114;BME280;42994;51.606;9.988;2023-05-10T10:09:49;98473.09;;;13.82;100.00
57114;BME280;42994;51.606;9.988;2023-05-10T10:12:16;98474.25;;;14.05;100.00
57114;BME280;42994;51.606;9.988;2023-05-10T10:14:43;98467.56;;;14.26;100.00
57114;BME280;42994;51.606;9.988;2023-05-10T10:17:09;98469.38;;;14.44;100.00
57114;BME280;42994;51.606;9.988;2023-05-10T10:19:38;98485.13;;;14.29;100.00
57114;BME280;42994;51.606;9.988;2023-05-10T10:22:05;98495.78;;;14.23;100.00
57114;BME280;42994;51.606;9.988;2023-05-10T10:24:32;98500.66;;;14.33;100.00
57114;BME280;42994;51.606;9.988;2023-05-10T10:27:06;98497.84;;;14.70;100.00
57114;BME280;42994;51.606;9.988;2023-05-10T10:29:38;98506.53;;;14.72;100.00
57114;BME280;42994;51.606;9.988;2023-05-10T10:32:12;98517.59;;;14.52;100.00
57114;BME280;42994;51.606;9.988;2023-05-10T10:34:46;98508.59;;;15.01;100.00
57114;BME280;42994;51.606;9.988;2023-05-10T10:37:13;98508.16;;;15.15;100.00
57114;BME280;42994;51.606;9.988;2023-05-10T10:39:40;98515.03;;;14.99;100.00
57114;BME280;42994;51.606;9.988;2023-05-10T10:42:07;98512.56;;;14.98;100.00
57114;BME280;42994;51.606;9.988;2023-05-10T10:44:37;98515.41;;;15.03;100.00
57114;BME280;42994;51.606;9.988;2023-05-10T10:47:06;98512.13;;;15.01;100.00
57114;BME280;42994;51.606;9.988;2023-05-10T10:49:43;98512.69;;;15.03;100.00
57114;BME280;42994;51.606;9.988;2023-05-10T10:52:21;98504.03;;;15.25;100.00
57114;BME280;42994;51.606;9.988;2023-05-10T10:54:51;98509.78;;;15.40;100.00
57114;BME280;42994;51.606;9.988;2023-05-10T10:57:19;98516.00;;;15.29;100.00
57114;BME280;42994;51.606;9.988;2023-05-10T10:59:47;98516.84;;;15.41;100.00
57114;BME280;42994;51.606;9.988;2023-05-10T11:02:33;98527.63;;;15.41;100.00
57114;BME280;42994;51.606;9.988;2023-05-10T11:05:08;98526.22;;;15.50;100.00
57114;BME280;42994;51.606;9.988;2023-05-10T11:07:55;98526.69;;;15.47;100.00
57114;BME280;42994;51.606;9.988;2023-05-10T11:10:21;98529.41;;;15.35;100.00
57114;BME280;42994;51.606;9.988;2023-05-10T11:12:52;98525.97;;;15.40;100.00
57114;BME280;42994;51.606;9.988;2023-05-10T11:15:28;98527.19;;;15.44;100.00
57114;BME280;42994;51.606;9.988;2023-05-10T11:17:55;98531.84;;;15.25;100.00
57114;BME280;42994;51.606;9.988;2023-05-10T11:20:22;98527.50;;;15.36;100.00
57114;BME280;42994;51.606;9.988;2023-05-10T11:22:55;98540.06;;;15.42;100.00
57114;BME280;42994;51.606;9.988;2023-05-10T11:25:26;98537.16;;;15.32;100.00
57114;BME280;42994;51.606;9.988;2023-05-10T11:27:53;98542.38;;;15.03;100.00
57114;BME280;42994;51.606;9.988;2023-05-10T11:30:20;98539.22;;;15.18;100.00
57114;BME280;42994;51.606;9.988;2023-05-10T11:32:47;98541.13;;;15.17;100.00
57114;BME280;42994;51.606;9.988;2023-05-10T11:35:14;98535.13;;;15.51;100.00
57114;BME280;42994;51.606;9.988;2023-05-10T11:37:41;98532.91;;;15.60;100.00
57114;BME280;42994;51.606;9.988;2023-05-10T11:40:11;98532.66;;;15.49;100.00
57114;BME280;42994;51.606;9.988;2023-05-10T11:42:38;98541.13;;;15.65;100.00
57114;BME280;42994;51.606;9.988;2023-05-10T11:45:06;98533.28;;;15.75;100.00
57114;BME280;42994;51.606;9.988;2023-05-10T11:47:33;98531.25;;;15.82;100.00
57114;BME280;42994;51.606;9.988;2023-05-10T11:50:02;98541.25;;;15.58;100.00
57114;BME280;42994;51.606;9.988;2023-05-10T11:52:35;98539.75;;;15.74;100.00
57114;BME280;42994;51.606;9.988;2023-05-10T11:55:02;98545.00;;;15.69;100.00
57114;BME280;42994;51.606;9.988;2023-05-10T11:57:31;98547.59;;;15.64;100.00
57114;BME280;42994;51.606;9.988;2023-05-10T11:59:58;98544.66;;;15.89;100.00
57114;BME280;42994;51.606;9.988;2023-05-10T12:02:25;98547.47;;;15.70;100.00
57114;BME280;42994;51.606;9.988;2023-05-10T12:04:52;98543.84;;;15.76;100.00
57114;BME280;42994;51.606;9.988;2023-05-10T12:07:19;98544.06;;;15.87;100.00
57114;BME280;42994;51.606;9.988;2023-05-10T12:10:04;98537.59;;;15.88;100.00
57114;BME280;42994;51.606;9.988;2023-05-10T12:12:37;98541.09;;;16.12;100.00
57114;BME280;42994;51.606;9.988;2023-05-10T12:15:05;98543.25;;;15.86;100.00
57114;BME280;42994;51.606;9.988;2023-05-10T12:17:32;98549.72;;;15.85;100.00
57114;BME280;42994;51.606;9.988;2023-05-10T12:20:12;98546.84;;;16.04;100.00
57114;BME280;42994;51.606;9.988;2023-05-10T12:22:39;98562.13;;;16.10;100.00
57114;BME280;42994;51.606;9.988;2023-05-10T12:25:08;98562.50;;;16.02;100.00
57114;BME280;42994;51.606;9.988;2023-05-10T12:27:36;98569.56;;;16.03;100.00
57114;BME280;42994;51.606;9.988;2023-05-10T12:30:04;98563.69;;;15.94;100.00
57114;BME280;42994;51.606;9.988;2023-05-10T12:32:38;98574.00;;;15.97;100.00
57114;BME280;42994;51.606;9.988;2023-05-10T12:35:05;98566.81;;;16.14;100.00
57114;BME280;42994;51.606;9.988;2023-05-10T12:37:32;98564.84;;;15.98;100.00
57114;BME280;42994;51.606;9.988;2023-05-10T12:40:05;98572.44;;;16.53;100.00
57114;BME280;42994;51.606;9.988;2023-05-10T12:42:33;98578.09;;;16.81;100.00
57114;BME280;42994;51.606;9.988;2023-05-10T12:45:02;98576.53;;;16.27;100.00
57114;BME280;42994;51.606;9.988;2023-05-10T12:47:29;98583.28;;;16.13;100.00
57114;BME280;42994;51.606;9.988;2023-05-10T12:49:56;98577.16;;;16.18;100.00
57114;BME280;42994;51.606;9.988;2023-05-10T12:52:22;98582.06;;;16.21;100.00
57114;BME280;42994;51.606;9.988;2023-05-10T12:54:49;98580.84;;;16.52;100.00
57114;BME280;42994;51.606;9.988;2023-05-10T12:57:16;98582.50;;;16.41;100.00